sensor_id;sensor_type;location;lat;lon;timestamp;temperature;humidity
42683;DHT22;28293;50.930;3.464;2023-05-10T00:00:32;13.50;92.00
42683;DHT22;28293;50.930;3.464;2023-05-10T00:02:58;13.50;92.00
42683;DHT22;28293;50.930;3.464;2023-05-10T00:05:24;13.50;92.00
42683;DHT22;28293;50.930;3.464;2023-05-10T00:07:50;13.50;92.00
42683;DHT22;28293;50.930;3.464;2023-05-10T00:10:15;13.50;91.90
42683;DHT22;28293;50.930;3.464;2023-05-10T00:12:41;13.50;92.00
42683;DHT22;28293;50.930;3.464;2023-05-10T00:15:09;13.50;92.00
42683;DHT22;28293;50.930;3.464;2023-05-10T00:17:34;13.50;91.90
42683;DHT22;28293;50.930;3.464;2023-05-10T00:20:00;13.50;91.80
42683;DHT22;28293;50.930;3.464;2023-05-10T00:22:26;13.50;91.90
42683;DHT22;28293;50.930;3.464;2023-05-10T00:24:52;13.40;91.70
42683;DHT22;28293;50.930;3.464;2023-05-10T00:27:17;13.40;91.70
42683;DHT22;28293;50.930;3.464;2023-05-10T00:29:43;13.40;91.80
42683;DHT22;28293;50.930;3.464;2023-05-10T00:32:09;13.40;91.80
42683;DHT22;28293;50.930;3.464;2023-05-10T00:34:34;13.30;91.70
42683;DHT22;28293;50.930;3.464;2023-05-10T00:37:00;13.30;91.80
42683;DHT22;28293;50.930;3.464;2023-05-10T00:39:27;13.30;91.90
42683;DHT22;28293;50.930;3.464;2023-05-10T00:41:54;13.30;91.80
42683;DHT22;28293;50.930;3.464;2023-05-10T00:44:19;13.20;91.70
42683;DHT22;28293;50.930;3.464;2023-05-10T00:46:46;13.20;91.90
42683;DHT22;28293;50.930;3.464;2023-05-10T00:49:12;13.20;91.80
42683;DHT22;28293;50.930;3.464;2023-05-10T00:51:38;13.20;91.70
42683;DHT22;28293;50.930;3.464;2023-05-10T00:54:04;13.10;91.70
42683;DHT22;28293;50.930;3.464;2023-05-10T00:56:30;13.10;91.60
42683;DHT22;28293;50.930;3.464;2023-05-10T00:58:56;13.10;91.70
42683;DHT22;28293;50.930;3.464;2023-05-10T01:01:22;13.10;91.70
42683;DHT22;28293;50.930;3.464;2023-05-10T01:03:48;13.10;91.90
42683;DHT22;28293;50.930;3.464;2023-05-10T01:06:14;13.10;92.00
42683;DHT22;28293;50.930;3.464;2023-05-10T01:08:40;13.10;92.00
42683;DHT22;28293;50.930;3.464;2023-05-10T01:11:06;13.10;91.80
42683;DHT22;28293;50.930;3.464;2023-05-10T01:13:38;13.10;91.90
42683;DHT22;28293;50.930;3.464;2023-05-10T01:16:05;13.10;91.90
42683;DHT22;28293;50.930;3.464;2023-05-10T01:18:35;13.10;91.90
42683;DHT22;28293;50.930;3.464;2023-05-10T01:21:17;13.00;92.00
42683;DHT22;28293;50.930;3.464;2023-05-10T01:24:01;13.00;92.00
42683;DHT22;28293;50.930;3.464;2023-05-10T01:29:34;13.10;92.10
42683;DHT22;28293;50.930;3.464;2023-05-10T01:32:14;13.10;92.00
42683;DHT22;28293;50.930;3.464;2023-05-10T01:35:31;13.10;92.00
42683;DHT22;28293;50.930;3.464;2023-05-10T01:38:04;13.10;92.10
42683;DHT22;28293;50.930;3.464;2023-05-10T01:40:46;13.10;92.00
42683;DHT22;28293;50.930;3.464;2023-05-10T01:43:28;13.10;91.90
42683;DHT22;28293;50.930;3.464;2023-05-10T01:45:59;13.10;91.90
42683;DHT22;28293;50.930;3.464;2023-05-10T01:48:27;13.10;91.80
42683;DHT22;28293;50.930;3.464;2023-05-10T01:50:54;13.10;91.90
42683;DHT22;28293;50.930;3.464;2023-05-10T01:53:22;13.10;91.80
42683;DHT22;28293;50.930;3.464;2023-05-10T01:55:52;13.10;91.70
42683;DHT22;28293;50.930;3.464;2023-05-10T01:58:22;13.10;91.90
42683;DHT22;28293;50.930;3.464;2023-05-10T02:00:50;13.10;91.90
42683;DHT22;28293;50.930;3.464;2023-05-10T02:03:23;13.10;91.90
42683;DHT22;28293;50.930;3.464;2023-05-10T02:05:50;13.10;91.80
42683;DHT22;28293;50.930;3.464;2023-05-10T02:08:18;13.10;91.80
42683;DHT22;28293;50.930;3.464;2023-05-10T02:10:45;13.20;91.70
42683;DHT22;28293;50.930;3.464;2023-05-10T02:13:13;13.10;91.80
42683;DHT22;28293;50.930;3.464;2023-05-10T02:15:40;13.10;91.90
42683;DHT22;28293;50.930;3.464;2023-05-10T02:18:07;13.10;91.80
42683;DHT22;28293;50.930;3.464;2023-05-10T02:20:35;13.10;91.80
42683;DHT22;28293;50.930;3.464;2023-05-10T02:23:02;13.10;92.00
42683;DHT22;28293;50.930;3.464;2023-05-10T02:25:29;13.10;91.90
42683;DHT22;28293;50.930;3.464;2023-05-10T02:27:56;13.10;92.00
42683;DHT22;28293;50.930;3.464;2023-05-10T02:30:23;13.10;92.00
42683;DHT22;28293;50.930;3.464;2023-05-10T02:32:50;13.10;92.10
42683;DHT22;28293;50.930;3.464;2023-05-10T02:35:17;13.10;92.10
42683;DHT22;28293;50.930;3.464;2023-05-10T02:37:44;13.10;92.10
42683;DHT22;28293;50.930;3.464;2023-05-10T02:40:10;13.10;92.00
42683;DHT22;28293;50.930;3.464;2023-05-10T02:42:37;13.10;92.10
42683;DHT22;28293;50.930;3.464;2023-05-10T02:45:19;13.10;92.10
42683;DHT22;28293;50.930;3.464;2023-05-10T02:47:46;13.10;92.10
42683;DHT22;28293;50.930;3.464;2023-05-10T02:50:12;13.00;92.10
42683;DHT22;28293;50.930;3.464;2023-05-10T02:52:47;13.00;92.20
42683;DHT22;28293;50.930;3.464;2023-05-10T02:55:16;13.00;92.30
42683;DHT22;28293;50.930;3.464;2023-05-10T02:58:04;13.00;92.30
42683;DHT22;28293;50.930;3.464;2023-05-10T03:00:31;12.90;92.20
42683;DHT22;28293;50.930;3.464;2023-05-10T03:02:56;13.00;92.10
42683;DHT22;28293;50.930;3.464;2023-05-10T03:05:22;12.90;92.00
42683;DHT22;28293;50.930;3.464;2023-05-10T03:07:48;12.90;92.00
42683;DHT22;28293;50.930;3.464;2023-05-10T03:10:15;12.90;92.10
42683;DHT22;28293;50.930;3.464;2023-05-10T03:18:10;12.90;92.00
42683;DHT22;28293;50.930;3.464;2023-05-10T03:25:38;13.00;91.80
42683;DHT22;28293;50.930;3.464;2023-05-10T03:28:06;13.00;91.90
42683;DHT22;28293;50.930;3.464;2023-05-10T03:30:32;12.90;91.70
42683;DHT22;28293;50.930;3.464;2023-05-10T03:33:04;12.90;91.80
42683;DHT22;28293;50.930;3.464;2023-05-10T03:35:30;12.90;91.90
42683;DHT22;28293;50.930;3.464;2023-05-10T03:37:56;12.90;91.90
42683;DHT22;28293;50.930;3.464;2023-05-10T03:40:22;12.90;91.80
42683;DHT22;28293;50.930;3.464;2023-05-10T03:42:48;12.80;91.80
42683;DHT22;28293;50.930;3.464;2023-05-10T03:45:14;12.90;91.90
42683;DHT22;28293;50.930;3.464;2023-05-10T03:47:39;12.80;91.90
42683;DHT22;28293;50.930;3.464;2023-05-10T03:50:06;12.80;91.90
42683;DHT22;28293;50.930;3.464;2023-05-10T03:52:32;12.80;91.90
42683;DHT22;28293;50.930;3.464;2023-05-10T03:54:58;12.80;91.90
42683;DHT22;28293;50.930;3.464;2023-05-10T03:57:23;12.80;92.00
42683;DHT22;28293;50.930;3.464;2023-05-10T03:59:49;12.80;91.90
42683;DHT22;28293;50.930;3.464;2023-05-10T04:02:15;12.80;91.80
42683;DHT22;28293;50.930;3.464;2023-05-10T04:04:41;12.80;91.90
42683;DHT22;28293;50.930;3.464;2023-05-10T04:07:07;12.70;92.00
42683;DHT22;28293;50.930;3.464;2023-05-10T04:09:32;12.80;92.20
42683;DHT22;28293;50.930;3.464;2023-05-10T04:11:59;12.80;92.10
42683;DHT22;28293;50.930;3.464;2023-05-10T04:14:26;12.80;92.20
42683;DHT22;28293;50.930;3.464;2023-05-10T04:16:51;12.80;92.10
42683;DHT22;28293;50.930;3.464;2023-05-10T04:19:17;12.70;92.10
42683;DHT22;28293;50.930;3.464;2023-05-10T04:21:42;12.70;92.10
42683;DHT22;28293;50.930;3.464;2023-05-10T04:24:08;12.70;92.10
42683;DHT22;28293;50.930;3.464;2023-05-10T04:26:34;12.70;92.20
42683;DHT22;28293;50.930;3.464;2023-05-10T04:29:00;12.80;92.30
42683;DHT22;28293;50.930;3.464;2023-05-10T04:31:25;12.80;92.30
42683;DHT22;28293;50.930;3.464;2023-05-10T04:33:52;12.80;92.30
42683;DHT22;28293;50.930;3.464;2023-05-10T04:36:17;12.80;92.30
42683;DHT22;28293;50.930;3.464;2023-05-10T04:38:43;12.80;92.30
42683;DHT22;28293;50.930;3.464;2023-05-10T04:41:10;12.90;92.20
42683;DHT22;28293;50.930;3.464;2023-05-10T04:43:36;12.80;92.20
42683;DHT22;28293;50.930;3.464;2023-05-10T04:46:02;12.80;92.20
42683;DHT22;28293;50.930;3.464;2023-05-10T04:48:28;12.80;92.20
42683;DHT22;28293;50.930;3.464;2023-05-10T04:50:54;12.80;92.20
42683;DHT22;28293;50.930;3.464;2023-05-10T04:53:20;12.80;92.10
42683;DHT22;28293;50.930;3.464;2023-05-10T04:55:45;12.80;92.20
42683;DHT22;28293;50.930;3.464;2023-05-10T04:58:12;12.90;92.20
42683;DHT22;28293;50.930;3.464;2023-05-10T05:00:38;12.90;92.20
42683;DHT22;28293;50.930;3.464;2023-05-10T05:03:03;12.90;92.00
42683;DHT22;28293;50.930;3.464;2023-05-10T05:05:29;12.90;92.00
42683;DHT22;28293;50.930;3.464;2023-05-10T05:07:55;13.00;92.10
42683;DHT22;28293;50.930;3.464;2023-05-10T05:10:20;13.00;92.00
42683;DHT22;28293;50.930;3.464;2023-05-10T05:12:46;13.00;92.00
42683;DHT22;28293;50.930;3.464;2023-05-10T05:15:12;13.00;92.00
42683;DHT22;28293;50.930;3.464;2023-05-10T05:17:37;13.00;92.00
42683;DHT22;28293;50.930;3.464;2023-05-10T05:20:03;13.10;92.10
42683;DHT22;28293;50.930;3.464;2023-05-10T05:22:29;13.00;92.00
42683;DHT22;28293;50.930;3.464;2023-05-10T05:24:55;13.10;92.00
42683;DHT22;28293;50.930;3.464;2023-05-10T05:27:22;13.10;91.90
42683;DHT22;28293;50.930;3.464;2023-05-10T05:29:50;13.10;91.90
42683;DHT22;28293;50.930;3.464;2023-05-10T05:32:16;13.10;91.80
42683;DHT22;28293;50.930;3.464;2023-05-10T05:34:44;13.10;91.70
42683;DHT22;28293;50.930;3.464;2023-05-10T05:37:16;13.20;91.80
42683;DHT22;28293;50.930;3.464;2023-05-10T05:39:42;13.20;91.80
42683;DHT22;28293;50.930;3.464;2023-05-10T05:42:09;13.20;91.60
42683;DHT22;28293;50.930;3.464;2023-05-10T05:44:35;13.30;91.60
42683;DHT22;28293;50.930;3.464;2023-05-10T05:47:01;13.40;91.50
42683;DHT22;28293;50.930;3.464;2023-05-10T05:49:26;13.40;91.30
42683;DHT22;28293;50.930;3.464;2023-05-10T05:51:52;13.40;91.00
42683;DHT22;28293;50.930;3.464;2023-05-10T05:54:18;13.30;91.00
42683;DHT22;28293;50.930;3.464;2023-05-10T05:56:43;13.30;90.80
42683;DHT22;28293;50.930;3.464;2023-05-10T05:59:10;13.30;90.90
42683;DHT22;28293;50.930;3.464;2023-05-10T06:01:36;13.30;90.70
42683;DHT22;28293;50.930;3.464;2023-05-10T06:04:01;13.30;90.80
42683;DHT22;28293;50.930;3.464;2023-05-10T06:06:28;13.30;90.80
42683;DHT22;28293;50.930;3.464;2023-05-10T06:08:54;13.50;90.80
42683;DHT22;28293;50.930;3.464;2023-05-10T06:11:19;13.40;90.70
42683;DHT22;28293;50.930;3.464;2023-05-10T06:13:46;13.60;90.50
42683;DHT22;28293;50.930;3.464;2023-05-10T06:16:12;13.60;90.30
42683;DHT22;28293;50.930;3.464;2023-05-10T06:18:39;13.60;90.40
42683;DHT22;28293;50.930;3.464;2023-05-10T06:21:04;13.70;90.30
42683;DHT22;28293;50.930;3.464;2023-05-10T06:23:30;13.80;90.20
42683;DHT22;28293;50.930;3.464;2023-05-10T06:25:56;13.80;90.00
42683;DHT22;28293;50.930;3.464;2023-05-10T06:28:21;13.80;89.60
42683;DHT22;28293;50.930;3.464;2023-05-10T06:30:47;13.80;89.60
42683;DHT22;28293;50.930;3.464;2023-05-10T06:33:13;13.80;89.60
42683;DHT22;28293;50.930;3.464;2023-05-10T06:35:39;13.80;89.70
42683;DHT22;28293;50.930;3.464;2023-05-10T06:38:04;13.80;89.50
42683;DHT22;28293;50.930;3.464;2023-05-10T06:40:30;13.80;89.50
42683;DHT22;28293;50.930;3.464;2023-05-10T06:42:56;13.90;89.40
42683;DHT22;28293;50.930;3.464;2023-05-10T06:45:22;13.90;89.40
42683;DHT22;28293;50.930;3.464;2023-05-10T06:47:47;14.00;89.30
42683;DHT22;28293;50.930;3.464;2023-05-10T06:50:13;14.10;89.10
42683;DHT22;28293;50.930;3.464;2023-05-10T06:52:39;14.10;88.60
42683;DHT22;28293;50.930;3.464;2023-05-10T06:55:05;14.10;88.10
42683;DHT22;28293;50.930;3.464;2023-05-10T06:57:31;14.20;88.40
42683;DHT22;28293;50.930;3.464;2023-05-10T06:59:58;14.20;87.60
42683;DHT22;28293;50.930;3.464;2023-05-10T07:02:24;14.30;87.50
42683;DHT22;28293;50.930;3.464;2023-05-10T07:04:50;14.40;87.40
42683;DHT22;28293;50.930;3.464;2023-05-10T07:07:17;14.50;87.00
42683;DHT22;28293;50.930;3.464;2023-05-10T07:09:43;14.60;86.90
42683;DHT22;28293;50.930;3.464;2023-05-10T07:12:08;14.80;86.80
42683;DHT22;28293;50.930;3.464;2023-05-10T07:14:34;15.00;85.80
42683;DHT22;28293;50.930;3.464;2023-05-10T07:17:00;15.10;85.50
42683;DHT22;28293;50.930;3.464;2023-05-10T07:19:25;15.30;85.30
42683;DHT22;28293;50.930;3.464;2023-05-10T07:21:51;15.30;84.30
42683;DHT22;28293;50.930;3.464;2023-05-10T07:24:16;15.50;84.30
42683;DHT22;28293;50.930;3.464;2023-05-10T07:26:42;15.60;84.00
42683;DHT22;28293;50.930;3.464;2023-05-10T07:29:08;15.50;83.20
42683;DHT22;28293;50.930;3.464;2023-05-10T07:31:34;15.40;83.30
42683;DHT22;28293;50.930;3.464;2023-05-10T07:33:59;15.20;83.50
42683;DHT22;28293;50.930;3.464;2023-05-10T07:36:25;15.10;84.00
42683;DHT22;28293;50.930;3.464;2023-05-10T07:38:51;15.10;84.20
42683;DHT22;28293;50.930;3.464;2023-05-10T07:41:17;14.90;84.20
42683;DHT22;28293;50.930;3.464;2023-05-10T07:43:43;14.80;84.50
42683;DHT22;28293;50.930;3.464;2023-05-10T07:46:09;14.60;84.90
42683;DHT22;28293;50.930;3.464;2023-05-10T07:48:36;14.50;85.40
42683;DHT22;28293;50.930;3.464;2023-05-10T07:51:02;14.50;85.60
42683;DHT22;28293;50.930;3.464;2023-05-10T07:53:28;14.50;85.80
42683;DHT22;28293;50.930;3.464;2023-05-10T07:55:57;14.40;86.20
42683;DHT22;28293;50.930;3.464;2023-05-10T07:58:24;14.40;86.50
42683;DHT22;28293;50.930;3.464;2023-05-10T08:00:50;14.40;86.60
42683;DHT22;28293;50.930;3.464;2023-05-10T08:03:16;14.40;86.20
42683;DHT22;28293;50.930;3.464;2023-05-10T08:05:43;14.50;86.00
42683;DHT22;28293;50.930;3.464;2023-05-10T08:08:09;14.50;86.20
42683;DHT22;28293;50.930;3.464;2023-05-10T08:10:34;14.60;86.20
42683;DHT22;28293;50.930;3.464;2023-05-10T08:13:00;14.70;86.20
42683;DHT22;28293;50.930;3.464;2023-05-10T08:15:26;14.80;85.80
42683;DHT22;28293;50.930;3.464;2023-05-10T08:17:52;14.80;85.60
42683;DHT22;28293;50.930;3.464;2023-05-10T08:20:19;14.90;85.30
42683;DHT22;28293;50.930;3.464;2023-05-10T08:22:46;14.90;85.10
42683;DHT22;28293;50.930;3.464;2023-05-10T08:25:12;14.80;85.30
42683;DHT22;28293;50.930;3.464;2023-05-10T08:27:37;14.80;85.00
42683;DHT22;28293;50.930;3.464;2023-05-10T08:30:03;14.70;85.20
42683;DHT22;28293;50.930;3.464;2023-05-10T08:32:29;14.70;85.40
42683;DHT22;28293;50.930;3.464;2023-05-10T08:34:55;14.60;85.60
42683;DHT22;28293;50.930;3.464;2023-05-10T08:37:23;14.60;85.90
42683;DHT22;28293;50.930;3.464;2023-05-10T08:39:49;14.60;85.70
42683;DHT22;28293;50.930;3.464;2023-05-10T08:42:19;14.60;85.90
42683;DHT22;28293;50.930;3.464;2023-05-10T08:44:48;14.60;86.00
42683;DHT22;28293;50.930;3.464;2023-05-10T08:47:17;14.60;86.20
42683;DHT22;28293;50.930;3.464;2023-05-10T08:49:47;14.60;86.30
42683;DHT22;28293;50.930;3.464;2023-05-10T08:52:15;14.60;86.30
42683;DHT22;28293;50.930;3.464;2023-05-10T08:54:42;14.60;86.30
42683;DHT22;28293;50.930;3.464;2023-05-10T08:57:08;14.60;86.50
42683;DHT22;28293;50.930;3.464;2023-05-10T08:59:34;14.70;86.30
42683;DHT22;28293;50.930;3.464;2023-05-10T09:02:00;14.80;85.40
42683;DHT22;28293;50.930;3.464;2023-05-10T09:04:29;14.90;85.30
42683;DHT22;28293;50.930;3.464;2023-05-10T09:06:55;15.10;84.20
42683;DHT22;28293;50.930;3.464;2023-05-10T09:09:21;15.20;83.50
42683;DHT22;28293;50.930;3.464;2023-05-10T09:11:48;15.40;83.40
42683;DHT22;28293;50.930;3.464;2023-05-10T09:14:15;15.60;83.50
42683;DHT22;28293;50.930;3.464;2023-05-10T09:16:41;15.70;83.20
42683;DHT22;28293;50.930;3.464;2023-05-10T09:19:07;15.70;82.50
42683;DHT22;28293;50.930;3.464;2023-05-10T09:21:35;15.90;82.70
42683;DHT22;28293;50.930;3.464;2023-05-10T09:24:05;16.00;82.40
42683;DHT22;28293;50.930;3.464;2023-05-10T09:26:31;16.10;81.90
42683;DHT22;28293;50.930;3.464;2023-05-10T09:28:58;16.30;81.50
42683;DHT22;28293;50.930;3.464;2023-05-10T09:31:24;16.20;80.70
42683;DHT22;28293;50.930;3.464;2023-05-10T09:34:08;16.10;80.20
42683;DHT22;28293;50.930;3.464;2023-05-10T09:36:33;16.10;80.30
42683;DHT22;28293;50.930;3.464;2023-05-10T09:38:59;16.10;80.60
42683;DHT22;28293;50.930;3.464;2023-05-10T09:41:25;16.10;80.70
42683;DHT22;28293;50.930;3.464;2023-05-10T09:43:55;16.30;81.70
42683;DHT22;28293;50.930;3.464;2023-05-10T09:46:21;16.30;81.30
42683;DHT22;28293;50.930;3.464;2023-05-10T09:48:48;16.50;81.30
42683;DHT22;28293;50.930;3.464;2023-05-10T09:51:24;16.70;80.10
42683;DHT22;28293;50.930;3.464;2023-05-10T09:56:36;17.30;78.70
42683;DHT22;28293;50.930;3.464;2023-05-10T09:59:04;17.50;77.80
42683;DHT22;28293;50.930;3.464;2023-05-10T10:01:30;17.50;76.70
42683;DHT22;28293;50.930;3.464;2023-05-10T10:03:56;17.50;75.80
42683;DHT22;28293;50.930;3.464;2023-05-10T10:06:25;17.60;76.30
42683;DHT22;28293;50.930;3.464;2023-05-10T10:08:51;17.80;75.30
42683;DHT22;28293;50.930;3.464;2023-05-10T10:11:17;17.90;75.30
42683;DHT22;28293;50.930;3.464;2023-05-10T10:13:43;17.90;74.80
42683;DHT22;28293;50.930;3.464;2023-05-10T10:16:09;17.90;75.20
42683;DHT22;28293;50.930;3.464;2023-05-10T10:18:36;17.80;74.20
42683;DHT22;28293;50.930;3.464;2023-05-10T10:21:05;17.90;75.60
42683;DHT22;28293;50.930;3.464;2023-05-10T10:23:32;18.20;75.30
42683;DHT22;28293;50.930;3.464;2023-05-10T10:25:58;18.10;76.20
42683;DHT22;28293;50.930;3.464;2023-05-10T10:31:27;18.00;75.60
42683;DHT22;28293;50.930;3.464;2023-05-10T10:34:05;17.90;75.90
42683;DHT22;28293;50.930;3.464;2023-05-10T10:36:32;17.70;75.60
42683;DHT22;28293;50.930;3.464;2023-05-10T10:39:09;17.60;75.70
42683;DHT22;28293;50.930;3.464;2023-05-10T10:41:54;17.50;75.80
42683;DHT22;28293;50.930;3.464;2023-05-10T10:47:10;17.30;77.10
42683;DHT22;28293;50.930;3.464;2023-05-10T10:52:36;17.20;75.80
42683;DHT22;28293;50.930;3.464;2023-05-10T11:00:19;17.50;75.10
42683;DHT22;28293;50.930;3.464;2023-05-10T11:02:47;17.60;75.40
42683;DHT22;28293;50.930;3.464;2023-05-10T11:07:56;17.60;75.70
42683;DHT22;28293;50.930;3.464;2023-05-10T11:10:23;17.50;75.70
42683;DHT22;28293;50.930;3.464;2023-05-10T11:13:00;17.50;76.30
42683;DHT22;28293;50.930;3.464;2023-05-10T11:15:34;17.40;76.10
42683;DHT22;28293;50.930;3.464;2023-05-10T11:21:00;17.20;76.70
42683;DHT22;28293;50.930;3.464;2023-05-10T11:26:08;17.60;76.30
42683;DHT22;28293;50.930;3.464;2023-05-10T11:28:40;17.70;75.80
42683;DHT22;28293;50.930;3.464;2023-05-10T11:31:06;17.70;75.70
42683;DHT22;28293;50.930;3.464;2023-05-10T11:33:43;17.90;74.60
42683;DHT22;28293;50.930;3.464;2023-05-10T11:36:14;18.10;74.50
42683;DHT22;28293;50.930;3.464;2023-05-10T11:38:41;18.50;73.90
42683;DHT22;28293;50.930;3.464;2023-05-10T11:41:11;18.70;72.50
42683;DHT22;28293;50.930;3.464;2023-05-10T11:43:39;18.90;71.60
42683;DHT22;28293;50.930;3.464;2023-05-10T11:46:10;18.80;71.00
42683;DHT22;28293;50.930;3.464;2023-05-10T11:48:38;18.80;72.10
42683;DHT22;28293;50.930;3.464;2023-05-10T11:51:03;18.60;72.50
42683;DHT22;28293;50.930;3.464;2023-05-10T11:53:31;18.60;71.70
42683;DHT22;28293;50.930;3.464;2023-05-10T11:56:07;18.60;71.60
42683;DHT22;28293;50.930;3.464;2023-05-10T11:58:33;18.60;72.40
42683;DHT22;28293;50.930;3.464;2023-05-10T12:01:00;18.60;71.90
42683;DHT22;28293;50.930;3.464;2023-05-10T12:03:27;18.60;72.70
42683;DHT22;28293;50.930;3.464;2023-05-10T12:05:52;18.40;73.00
42683;DHT22;28293;50.930;3.464;2023-05-10T12:08:24;18.30;72.70
42683;DHT22;28293;50.930;3.464;2023-05-10T12:10:50;18.00;73.80
42683;DHT22;28293;50.930;3.464;2023-05-10T12:13:17;17.80;76.20
42683;DHT22;28293;50.930;3.464;2023-05-10T12:15:43;17.40;77.40
42683;DHT22;28293;50.930;3.464;2023-05-10T12:18:09;17.20;79.30
42683;DHT22;28293;50.930;3.464;2023-05-10T12:20:36;17.10;80.00
42683;DHT22;28293;50.930;3.464;2023-05-10T12:23:02;16.90;81.30
42683;DHT22;28293;50.930;3.464;2023-05-10T12:25:35;16.70;82.20
42683;DHT22;28293;50.930;3.464;2023-05-10T12:28:06;16.70;83.30
42683;DHT22;28293;50.930;3.464;2023-05-10T12:30:33;16.70;83.60
42683;DHT22;28293;50.930;3.464;2023-05-10T12:33:11;16.70;84.40
42683;DHT22;28293;50.930;3.464;2023-05-10T12:35:51;16.70;83.60
42683;DHT22;28293;50.930;3.464;2023-05-10T12:38:35;16.80;84.50
42683;DHT22;28293;50.930;3.464;2023-05-10T12:41:05;17.00;83.40
42683;DHT22;28293;50.930;3.464;2023-05-10T12:43:32;17.10;83.80
42683;DHT22;28293;50.930;3.464;2023-05-10T12:45:58;17.30;82.90
42683;DHT22;28293;50.930;3.464;2023-05-10T12:48:24;17.20;82.00
42683;DHT22;28293;50.930;3.464;2023-05-10T12:50:50;17.20;80.00
42683;DHT22;28293;50.930;3.464;2023-05-10T12:53:16;17.20;79.80
42683;DHT22;28293;50.930;3.464;2023-05-10T12:55:42;17.10;78.20
42683;DHT22;28293;50.930;3.464;2023-05-10T12:58:08;17.10;78.90
42683;DHT22;28293;50.930;3.464;2023-05-10T13:00:34;17.20;77.30
42683;DHT22;28293;50.930;3.464;2023-05-10T13:02:59;17.00;76.00
42683;DHT22;28293;50.930;3.464;2023-05-10T13:05:25;17.10;76.00
42683;DHT22;28293;50.930;3.464;2023-05-10T13:07:51;17.10;75.20
42683;DHT22;28293;50.930;3.464;2023-05-10T13:10:17;17.30;76.00
42683;DHT22;28293;50.930;3.464;2023-05-10T13:12:42;17.50;75.00
42683;DHT22;28293;50.930;3.464;2023-05-10T13:15:08;17.40;72.70
42683;DHT22;28293;50.930;3.464;2023-05-10T13:17:34;17.60;72.30
42683;DHT22;28293;50.930;3.464;2023-05-10T13:20:00;17.60;70.80
42683;DHT22;28293;50.930;3.464;2023-05-10T13:22:26;17.60;70.40
42683;DHT22;28293;50.930;3.464;2023-05-10T13:24:51;17.70;66.70
42683;DHT22;28293;50.930;3.464;2023-05-10T13:27:17;17.90;68.30
42683;DHT22;28293;50.930;3.464;2023-05-10T13:29:42;18.00;68.00
42683;DHT22;28293;50.930;3.464;2023-05-10T13:32:08;18.10;67.40
42683;DHT22;28293;50.930;3.464;2023-05-10T13:34:34;18.10;63.60
42683;DHT22;28293;50.930;3.464;2023-05-10T13:37:01;18.00;62.50
42683;DHT22;28293;50.930;3.464;2023-05-10T13:39:27;18.00;63.50
42683;DHT22;28293;50.930;3.464;2023-05-10T13:41:52;17.60;60.40
42683;DHT22;28293;50.930;3.464;2023-05-10T13:44:20;17.50;60.50
42683;DHT22;28293;50.930;3.464;2023-05-10T13:46:46;17.60;60.80
42683;DHT22;28293;50.930;3.464;2023-05-10T13:49:12;17.40;62.00
42683;DHT22;28293;50.930;3.464;2023-05-10T13:51:37;17.60;63.10
42683;DHT22;28293;50.930;3.464;2023-05-10T13:54:03;17.80;61.40
42683;DHT22;28293;50.930;3.464;2023-05-10T13:56:29;18.00;60.10
42683;DHT22;28293;50.930;3.464;2023-05-10T13:58:56;18.30;60.50
42683;DHT22;28293;50.930;3.464;2023-05-10T14:01:22;18.30;58.40
42683;DHT22;28293;50.930;3.464;2023-05-10T14:03:48;18.40;58.20
42683;DHT22;28293;50.930;3.464;2023-05-10T14:06:14;18.30;59.70
42683;DHT22;28293;50.930;3.464;2023-05-10T14:08:39;18.40;59.50
42683;DHT22;28293;50.930;3.464;2023-05-10T14:11:05;18.50;59.10
42683;DHT22;28293;50.930;3.464;2023-05-10T14:13:31;18.30;58.90
42683;DHT22;28293;50.930;3.464;2023-05-10T14:15:57;18.30;59.40
42683;DHT22;28293;50.930;3.464;2023-05-10T14:18:24;18.10;60.40
42683;DHT22;28293;50.930;3.464;2023-05-10T14:20:49;18.10;59.00
42683;DHT22;28293;50.930;3.464;2023-05-10T14:23:15;18.00;60.70
42683;DHT22;28293;50.930;3.464;2023-05-10T14:25:41;17.90;60.30
42683;DHT22;28293;50.930;3.464;2023-05-10T14:28:06;17.80;60.10
42683;DHT22;28293;50.930;3.464;2023-05-10T14:30:32;18.00;60.00
42683;DHT22;28293;50.930;3.464;2023-05-10T14:33:00;17.90;60.20
42683;DHT22;28293;50.930;3.464;2023-05-10T14:35:27;17.90;59.70
42683;DHT22;28293;50.930;3.464;2023-05-10T14:37:52;18.10;61.70
42683;DHT22;28293;50.930;3.464;2023-05-10T14:40:18;18.10;61.00
42683;DHT22;28293;50.930;3.464;2023-05-10T14:42:44;18.10;62.70
42683;DHT22;28293;50.930;3.464;2023-05-10T14:45:10;17.60;56.90
42683;DHT22;28293;50.930;3.464;2023-05-10T14:47:36;17.50;56.40
42683;DHT22;28293;50.930;3.464;2023-05-10T14:50:02;17.60;56.40
42683;DHT22;28293;50.930;3.464;2023-05-10T14:52:29;17.80;59.70
42683;DHT22;28293;50.930;3.464;2023-05-10T14:54:55;18.10;62.80
42683;DHT22;28293;50.930;3.464;2023-05-10T14:57:20;18.10;60.30
42683;DHT22;28293;50.930;3.464;2023-05-10T14:59:46;18.10;59.70
42683;DHT22;28293;50.930;3.464;2023-05-10T15:02:11;18.00;60.40
42683;DHT22;28293;50.930;3.464;2023-05-10T15:04:37;17.70;61.10
42683;DHT22;28293;50.930;3.464;2023-05-10T15:07:03;17.90;62.50
42683;DHT22;28293;50.930;3.464;2023-05-10T15:09:29;18.00;60.30
42683;DHT22;28293;50.930;3.464;2023-05-10T15:11:55;18.00;59.60
42683;DHT22;28293;50.930;3.464;2023-05-10T15:14:21;18.30;61.00
42683;DHT22;28293;50.930;3.464;2023-05-10T15:16:47;18.60;59.60
42683;DHT22;28293;50.930;3.464;2023-05-10T15:19:13;18.30;59.20
42683;DHT22;28293;50.930;3.464;2023-05-10T15:21:38;18.40;58.90
42683;DHT22;28293;50.930;3.464;2023-05-10T15:24:07;18.30;58.30
42683;DHT22;28293;50.930;3.464;2023-05-10T15:26:33;18.20;59.40
42683;DHT22;28293;50.930;3.464;2023-05-10T15:28:59;18.50;58.70
42683;DHT22;28293;50.930;3.464;2023-05-10T15:31:25;18.60;59.70
42683;DHT22;28293;50.930;3.464;2023-05-10T15:33:50;18.90;57.90
42683;DHT22;28293;50.930;3.464;2023-05-10T15:36:16;18.80;57.20
42683;DHT22;28293;50.930;3.464;2023-05-10T15:38:43;18.80;57.30
42683;DHT22;28293;50.930;3.464;2023-05-10T15:41:09;18.90;56.90
42683;DHT22;28293;50.930;3.464;2023-05-10T15:43:34;18.70;56.70
42683;DHT22;28293;50.930;3.464;2023-05-10T15:46:01;18.60;57.30
42683;DHT22;28293;50.930;3.464;2023-05-10T15:48:27;18.60;56.70
42683;DHT22;28293;50.930;3.464;2023-05-10T15:50:52;18.60;56.70
42683;DHT22;28293;50.930;3.464;2023-05-10T15:53:18;18.60;56.90
42683;DHT22;28293;50.930;3.464;2023-05-10T15:55:44;18.80;57.40
42683;DHT22;28293;50.930;3.464;2023-05-10T15:58:10;18.60;57.10
42683;DHT22;28293;50.930;3.464;2023-05-10T16:00:35;18.60;58.50
42683;DHT22;28293;50.930;3.464;2023-05-10T16:03:01;18.60;57.60
42683;DHT22;28293;50.930;3.464;2023-05-10T16:05:27;18.50;57.50
42683;DHT22;28293;50.930;3.464;2023-05-10T16:07:56;18.40;57.60